sensor_id;sensor_type;location;lat;lon;timestamp;P1;durP1;ratioP1;P2;durP2;ratioP2
19087;SDS011;9676;50.916;13.352;2023-06-22T00:00:19;14.30;;;12.90;;
19087;SDS011;9676;50.916;13.352;2023-06-22T00:03:09;14.30;;;12.87;;
19087;SDS011;9676;50.916;13.352;2023-06-22T00:05:58;14.53;;;13.03;;
19087;SDS011;9676;50.916;13.352;2023-06-22T00:08:48;14.80;;;13.27;;
19087;SDS011;9676;50.916;13.352;2023-06-22T00:11:38;14.60;;;13.10;;
19087;SDS011;9676;50.916;13.352;2023-06-22T00:14:28;14.93;;;13.33;;
19087;SDS011;9676;50.916;13.352;2023-06-22T00:17:17;14.80;;;13.00;;
19087;SDS011;9676;50.916;13.352;2023-06-22T00:20:07;13.97;;;12.50;;
19087;SDS011;9676;50.916;13.352;2023-06-22T00:22:58;15.40;;;13.60;;
19087;SDS011;9676;50.916;13.352;2023-06-22T00:25:48;17.70;;;13.27;;
19087;SDS011;9676;50.916;13.352;2023-06-22T00:28:39;14.50;;;13.00;;
19087;SDS011;9676;50.916;13.352;2023-06-22T00:31:29;13.73;;;12.33;;
19087;SDS011;9676;50.916;13.352;2023-06-22T00:34:18;15.60;;;12.77;;
19087;SDS011;9676;50.916;13.352;2023-06-22T00:37:08;14.13;;;12.77;;
19087;SDS011;9676;50.916;13.352;2023-06-22T00:39:58;17.30;;;13.17;;
19087;SDS011;9676;50.916;13.352;2023-06-22T00:42:48;14.03;;;12.63;;
19087;SDS011;9676;50.916;13.352;2023-06-22T00:45:38;13.97;;;12.57;;
19087;SDS011;9676;50.916;13.352;2023-06-22T00:48:29;13.50;;;12.17;;
19087;SDS011;9676;50.916;13.352;2023-06-22T00:51:20;14.43;;;12.93;;
19087;SDS011;9676;50.916;13.352;2023-06-22T00:54:11;13.93;;;12.63;;
19087;SDS011;9676;50.916;13.352;2023-06-22T00:57:01;14.00;;;12.60;;
19087;SDS011;9676;50.916;13.352;2023-06-22T00:59:51;14.30;;;12.80;;
19087;SDS011;9676;50.916;13.352;2023-06-22T01:02:42;13.77;;;12.37;;
19087;SDS011;9676;50.916;13.352;2023-06-22T01:05:34;13.40;;;12.03;;
19087;SDS011;9676;50.916;13.352;2023-06-22T01:08:27;14.57;;;13.07;;
19087;SDS011;9676;50.916;13.352;2023-06-22T01:11:26;14.00;;;12.60;;
19087;SDS011;9676;50.916;13.352;2023-06-22T01:14:22;13.77;;;12.30;;
19087;SDS011;9676;50.916;13.352;2023-06-22T01:17:16;14.33;;;12.83;;
19087;SDS011;9676;50.916;13.352;2023-06-22T01:20:09;13.93;;;12.53;;
19087;SDS011;9676;50.916;13.352;2023-06-22T01:23:04;14.63;;;12.93;;
19087;SDS011;9676;50.916;13.352;2023-06-22T01:26:06;14.67;;;13.07;;
19087;SDS011;9676;50.916;13.352;2023-06-22T01:29:08;14.97;;;13.50;;
19087;SDS011;9676;50.916;13.352;2023-06-22T01:32:01;14.67;;;13.17;;
19087;SDS011;9676;50.916;13.352;2023-06-22T01:34:56;15.10;;;12.90;;
19087;SDS011;9676;50.916;13.352;2023-06-22T01:37:50;14.00;;;12.30;;
19087;SDS011;9676;50.916;13.352;2023-06-22T01:40:40;14.60;;;13.10;;
19087;SDS011;9676;50.916;13.352;2023-06-22T01:43:30;14.33;;;12.87;;
19087;SDS011;9676;50.916;13.352;2023-06-22T01:46:23;17.70;;;12.63;;
19087;SDS011;9676;50.916;13.352;2023-06-22T01:49:13;13.73;;;12.23;;
19087;SDS011;9676;50.916;13.352;2023-06-22T01:52:03;14.33;;;12.90;;
19087;SDS011;9676;50.916;13.352;2023-06-22T01:54:53;13.80;;;12.40;;
19087;SDS011;9676;50.916;13.352;2023-06-22T01:57:42;13.93;;;12.53;;
19087;SDS011;9676;50.916;13.352;2023-06-22T02:00:32;13.30;;;12.00;;
19087;SDS011;9676;50.916;13.352;2023-06-22T02:03:29;14.27;;;12.87;;
19087;SDS011;9676;50.916;13.352;2023-06-22T02:06:24;14.30;;;11.93;;
19087;SDS011;9676;50.916;13.352;2023-06-22T02:09:22;13.63;;;12.23;;
19087;SDS011;9676;50.916;13.352;2023-06-22T02:12:15;13.63;;;12.30;;
19087;SDS011;9676;50.916;13.352;2023-06-22T02:15:09;14.40;;;13.00;;
19087;SDS011;9676;50.916;13.352;2023-06-22T02:18:01;14.57;;;13.17;;
19087;SDS011;9676;50.916;13.352;2023-06-22T02:20:52;13.23;;;11.93;;
19087;SDS011;9676;50.916;13.352;2023-06-22T02:23:42;17.90;;;12.90;;
19087;SDS011;9676;50.916;13.352;2023-06-22T02:26:32;12.97;;;11.67;;
19087;SDS011;9676;50.916;13.352;2023-06-22T02:29:22;13.87;;;12.47;;
19087;SDS011;9676;50.916;13.352;2023-06-22T02:32:11;14.10;;;12.70;;
19087;SDS011;9676;50.916;13.352;2023-06-22T02:35:00;13.90;;;12.60;;
19087;SDS011;9676;50.916;13.352;2023-06-22T02:37:53;15.43;;;12.50;;
19087;SDS011;9676;50.916;13.352;2023-06-22T02:40:45;13.20;;;11.90;;
19087;SDS011;9676;50.916;13.352;2023-06-22T02:43:34;13.67;;;12.37;;
19087;SDS011;9676;50.916;13.352;2023-06-22T02:46:24;14.00;;;12.60;;
19087;SDS011;9676;50.916;13.352;2023-06-22T02:49:14;13.23;;;11.93;;
19087;SDS011;9676;50.916;13.352;2023-06-22T02:52:03;14.00;;;12.60;;
19087;SDS011;9676;50.916;13.352;2023-06-22T02:54:55;13.73;;;12.30;;
19087;SDS011;9676;50.916;13.352;2023-06-22T02:57:44;13.40;;;12.00;;
19087;SDS011;9676;50.916;13.352;2023-06-22T03:00:35;14.00;;;12.53;;
19087;SDS011;9676;50.916;13.352;2023-06-22T03:03:27;14.50;;;12.73;;
19087;SDS011;9676;50.916;13.352;2023-06-22T03:06:16;14.00;;;12.60;;
19087;SDS011;9676;50.916;13.352;2023-06-22T03:09:11;13.60;;;12.30;;
19087;SDS011;9676;50.916;13.352;2023-06-22T03:12:01;14.37;;;12.47;;
19087;SDS011;9676;50.916;13.352;2023-06-22T03:15:03;14.37;;;12.97;;
19087;SDS011;9676;50.916;13.352;2023-06-22T03:17:54;13.50;;;12.20;;
19087;SDS011;9676;50.916;13.352;2023-06-22T03:20:44;14.20;;;12.70;;
19087;SDS011;9676;50.916;13.352;2023-06-22T03:23:34;13.63;;;12.23;;
19087;SDS011;9676;50.916;13.352;2023-06-22T03:26:23;13.63;;;12.33;;
19087;SDS011;9676;50.916;13.352;2023-06-22T03:29:15;13.73;;;12.43;;
19087;SDS011;9676;50.916;13.352;2023-06-22T03:32:05;14.00;;;12.60;;
19087;SDS011;9676;50.916;13.352;2023-06-22T03:34:55;13.63;;;12.30;;
19087;SDS011;9676;50.916;13.352;2023-06-22T03:37:46;14.97;;;13.47;;
19087;SDS011;9676;50.916;13.352;2023-06-22T03:40:35;14.17;;;12.70;;
19087;SDS011;9676;50.916;13.352;2023-06-22T03:43:25;16.70;;;12.90;;
19087;SDS011;9676;50.916;13.352;2023-06-22T03:46:17;14.00;;;12.60;;
19087;SDS011;9676;50.916;13.352;2023-06-22T03:49:07;13.77;;;12.37;;
19087;SDS011;9676;50.916;13.352;2023-06-22T03:51:57;13.63;;;12.30;;
19087;SDS011;9676;50.916;13.352;2023-06-22T03:54:46;13.40;;;12.10;;
19087;SDS011;9676;50.916;13.352;2023-06-22T03:57:35;15.43;;;12.73;;
19087;SDS011;9676;50.916;13.352;2023-06-22T04:00:25;14.43;;;13.03;;
19087;SDS011;9676;50.916;13.352;2023-06-22T04:03:16;13.90;;;12.50;;
19087;SDS011;9676;50.916;13.352;2023-06-22T04:06:07;14.00;;;12.60;;
19087;SDS011;9676;50.916;13.352;2023-06-22T04:08:56;13.57;;;12.30;;
19087;SDS011;9676;50.916;13.352;2023-06-22T04:11:46;13.87;;;12.47;;
19087;SDS011;9676;50.916;13.352;2023-06-22T04:14:35;13.67;;;12.27;;
19087;SDS011;9676;50.916;13.352;2023-06-22T04:17:25;14.33;;;12.83;;
19087;SDS011;9676;50.916;13.352;2023-06-22T04:20:15;13.33;;;12.03;;
19087;SDS011;9676;50.916;13.352;2023-06-22T04:23:05;13.40;;;12.10;;
19087;SDS011;9676;50.916;13.352;2023-06-22T04:25:54;13.30;;;11.90;;
19087;SDS011;9676;50.916;13.352;2023-06-22T04:28:45;13.07;;;11.87;;
19087;SDS011;9676;50.916;13.352;2023-06-22T04:31:39;13.27;;;11.97;;
19087;SDS011;9676;50.916;13.352;2023-06-22T04:34:29;13.80;;;12.30;;
19087;SDS011;9676;50.916;13.352;2023-06-22T04:37:19;13.67;;;11.40;;
19087;SDS011;9676;50.916;13.352;2023-06-22T04:40:10;12.77;;;11.50;;
19087;SDS011;9676;50.916;13.352;2023-06-22T04:43:02;12.57;;;11.27;;
19087;SDS011;9676;50.916;13.352;2023-06-22T04:45:53;13.53;;;11.63;;
19087;SDS011;9676;50.916;13.352;2023-06-22T04:48:42;13.83;;;11.43;;
19087;SDS011;9676;50.916;13.352;2023-06-22T04:51:32;13.37;;;11.83;;
19087;SDS011;9676;50.916;13.352;2023-06-22T04:54:23;12.87;;;11.10;;
19087;SDS011;9676;50.916;13.352;2023-06-22T04:57:12;12.77;;;11.47;;
19087;SDS011;9676;50.916;13.352;2023-06-22T05:00:02;12.10;;;10.90;;
19087;SDS011;9676;50.916;13.352;2023-06-22T05:03:04;12.00;;;10.80;;
19087;SDS011;9676;50.916;13.352;2023-06-22T05:06:04;12.97;;;11.77;;
19087;SDS011;9676;50.916;13.352;2023-06-22T05:08:54;13.50;;;10.97;;
19087;SDS011;9676;50.916;13.352;2023-06-22T05:11:47;12.70;;;11.50;;
19087;SDS011;9676;50.916;13.352;2023-06-22T05:14:36;12.13;;;10.93;;
19087;SDS011;9676;50.916;13.352;2023-06-22T05:17:25;11.87;;;10.67;;
19087;SDS011;9676;50.916;13.352;2023-06-22T05:20:15;14.60;;;11.03;;
19087;SDS011;9676;50.916;13.352;2023-06-22T05:23:05;11.70;;;10.60;;
19087;SDS011;9676;50.916;13.352;2023-06-22T05:25:54;11.70;;;10.60;;
19087;SDS011;9676;50.916;13.352;2023-06-22T05:28:47;11.40;;;10.30;;
19087;SDS011;9676;50.916;13.352;2023-06-22T05:31:43;11.10;;;10.00;;
19087;SDS011;9676;50.916;13.352;2023-06-22T05:34:32;11.40;;;10.30;;
19087;SDS011;9676;50.916;13.352;2023-06-22T05:37:21;11.17;;;10.07;;
19087;SDS011;9676;50.916;13.352;2023-06-22T05:40:11;11.40;;;10.20;;
19087;SDS011;9676;50.916;13.352;2023-06-22T05:43:01;10.60;;;9.60;;
19087;SDS011;9676;50.916;13.352;2023-06-22T05:45:52;11.15;;;10.13;;
19087;SDS011;9676;50.916;13.352;2023-06-22T05:48:41;11.60;;;10.50;;
19087;SDS011;9676;50.916;13.352;2023-06-22T05:51:30;10.90;;;9.90;;
19087;SDS011;9676;50.916;13.352;2023-06-22T05:54:20;10.77;;;9.77;;
19087;SDS011;9676;50.916;13.352;2023-06-22T05:57:09;10.88;;;9.90;;
19087;SDS011;9676;50.916;13.352;2023-06-22T05:59:58;10.73;;;9.70;;
19087;SDS011;9676;50.916;13.352;2023-06-22T06:03:09;12.20;;;10.00;;
19087;SDS011;9676;50.916;13.352;2023-06-22T06:06:02;10.95;;;9.90;;
19087;SDS011;9676;50.916;13.352;2023-06-22T06:08:51;11.25;;;9.80;;
19087;SDS011;9676;50.916;13.352;2023-06-22T06:11:41;11.02;;;10.02;;
19087;SDS011;9676;50.916;13.352;2023-06-22T06:14:30;11.90;;;10.70;;
19087;SDS011;9676;50.916;13.352;2023-06-22T06:17:20;11.48;;;10.38;;
19087;SDS011;9676;50.916;13.352;2023-06-22T06:20:11;11.90;;;10.30;;
19087;SDS011;9676;50.916;13.352;2023-06-22T06:23:01;16.07;;;10.60;;
19087;SDS011;9676;50.916;13.352;2023-06-22T06:25:50;11.47;;;10.37;;
19087;SDS011;9676;50.916;13.352;2023-06-22T06:28:39;11.80;;;10.50;;
19087;SDS011;9676;50.916;13.352;2023-06-22T06:31:29;11.20;;;10.20;;
19087;SDS011;9676;50.916;13.352;2023-06-22T06:34:18;12.10;;;10.60;;
19087;SDS011;9676;50.916;13.352;2023-06-22T06:37:09;11.10;;;10.07;;
19087;SDS011;9676;50.916;13.352;2023-06-22T06:39:59;10.70;;;9.70;;
19087;SDS011;9676;50.916;13.352;2023-06-22T06:42:48;11.13;;;10.02;;
19087;SDS011;9676;50.916;13.352;2023-06-22T06:45:38;11.00;;;9.90;;
19087;SDS011;9676;50.916;13.352;2023-06-22T06:48:27;10.90;;;9.90;;
19087;SDS011;9676;50.916;13.352;2023-06-22T06:51:16;10.98;;;9.90;;
19087;SDS011;9676;50.916;13.352;2023-06-22T06:54:07;13.32;;;10.15;;
19087;SDS011;9676;50.916;13.352;2023-06-22T06:56:57;11.13;;;10.13;;
19087;SDS011;9676;50.916;13.352;2023-06-22T06:59:46;10.90;;;9.90;;
19087;SDS011;9676;50.916;13.352;2023-06-22T07:02:36;10.63;;;9.73;;
19087;SDS011;9676;50.916;13.352;2023-06-22T07:05:26;10.82;;;9.93;;
19087;SDS011;9676;50.916;13.352;2023-06-22T07:08:15;10.90;;;9.90;;
19087;SDS011;9676;50.916;13.352;2023-06-22T07:11:06;11.10;;;10.00;;
19087;SDS011;9676;50.916;13.352;2023-06-22T07:13:56;11.18;;;10.18;;
19087;SDS011;9676;50.916;13.352;2023-06-22T07:16:45;11.50;;;10.30;;
19087;SDS011;9676;50.916;13.352;2023-06-22T07:19:35;11.30;;;10.30;;
19087;SDS011;9676;50.916;13.352;2023-06-22T07:22:24;10.95;;;9.95;;
19087;SDS011;9676;50.916;13.352;2023-06-22T07:25:13;10.77;;;9.75;;
19087;SDS011;9676;50.916;13.352;2023-06-22T07:28:06;13.00;;;9.77;;
19087;SDS011;9676;50.916;13.352;2023-06-22T07:30:56;11.00;;;9.88;;
19087;SDS011;9676;50.916;13.352;2023-06-22T07:33:46;10.80;;;9.80;;
19087;SDS011;9676;50.916;13.352;2023-06-22T07:36:35;10.82;;;9.82;;
19087;SDS011;9676;50.916;13.352;2023-06-22T07:39:25;10.25;;;9.35;;
19087;SDS011;9676;50.916;13.352;2023-06-22T07:42:15;10.40;;;9.50;;
19087;SDS011;9676;50.916;13.352;2023-06-22T07:45:08;10.00;;;9.18;;
19087;SDS011;9676;50.916;13.352;2023-06-22T07:47:58;10.20;;;9.30;;
19087;SDS011;9676;50.916;13.352;2023-06-22T07:50:47;10.57;;;9.57;;
19087;SDS011;9676;50.916;13.352;2023-06-22T07:53:37;10.50;;;9.50;;
19087;SDS011;9676;50.916;13.352;2023-06-22T07:56:27;10.55;;;9.55;;
19087;SDS011;9676;50.916;13.352;2023-06-22T07:59:16;10.48;;;9.48;;
19087;SDS011;9676;50.916;13.352;2023-06-22T08:02:07;9.93;;;9.13;;
19087;SDS011;9676;50.916;13.352;2023-06-22T08:04:57;10.07;;;9.18;;
19087;SDS011;9676;50.916;13.352;2023-06-22T08:08:06;10.50;;;9.60;;
19087;SDS011;9676;50.916;13.352;2023-06-22T08:10:55;11.48;;;9.60;;
19087;SDS011;9676;50.916;13.352;2023-06-22T08:13:44;10.52;;;9.60;;
19087;SDS011;9676;50.916;13.352;2023-06-22T08:16:34;10.60;;;9.60;;
19087;SDS011;9676;50.916;13.352;2023-06-22T08:19:24;10.50;;;9.60;;
19087;SDS011;9676;50.916;13.352;2023-06-22T08:22:14;10.48;;;9.57;;
19087;SDS011;9676;50.916;13.352;2023-06-22T08:25:04;43.13;;;9.95;;
19087;SDS011;9676;50.916;13.352;2023-06-22T08:27:55;10.88;;;9.88;;
19087;SDS011;9676;50.916;13.352;2023-06-22T08:30:44;11.00;;;10.00;;
19087;SDS011;9676;50.916;13.352;2023-06-22T08:33:34;10.88;;;9.88;;
19087;SDS011;9676;50.916;13.352;2023-06-22T08:36:36;10.70;;;9.70;;
19087;SDS011;9676;50.916;13.352;2023-06-22T08:39:28;10.25;;;9.35;;
19087;SDS011;9676;50.916;13.352;2023-06-22T08:42:21;10.80;;;9.73;;
19087;SDS011;9676;50.916;13.352;2023-06-22T08:45:11;10.30;;;9.48;;
19087;SDS011;9676;50.916;13.352;2023-06-22T08:48:02;10.75;;;9.82;;
19087;SDS011;9676;50.916;13.352;2023-06-22T08:50:52;10.57;;;9.68;;
19087;SDS011;9676;50.916;13.352;2023-06-22T08:53:43;10.73;;;9.60;;
19087;SDS011;9676;50.916;13.352;2023-06-22T08:56:33;10.18;;;9.27;;
19087;SDS011;9676;50.916;13.352;2023-06-22T08:59:22;10.27;;;9.38;;
19087;SDS011;9676;50.916;13.352;2023-06-22T09:02:11;9.95;;;9.13;;
19087;SDS011;9676;50.916;13.352;2023-06-22T09:05:03;13.43;;;9.45;;
19087;SDS011;9676;50.916;13.352;2023-06-22T09:07:53;12.75;;;9.88;;
19087;SDS011;9676;50.916;13.352;2023-06-22T09:10:47;10.30;;;9.45;;
19087;SDS011;9676;50.916;13.352;2023-06-22T09:13:36;10.00;;;9.20;;
19087;SDS011;9676;50.916;13.352;2023-06-22T09:16:25;10.48;;;9.48;;
19087;SDS011;9676;50.916;13.352;2023-06-22T09:19:15;10.98;;;10.02;;
19087;SDS011;9676;50.916;13.352;2023-06-22T09:22:05;10.48;;;9.48;;
19087;SDS011;9676;50.916;13.352;2023-06-22T09:24:54;10.40;;;9.40;;
19087;SDS011;9676;50.916;13.352;2023-06-22T09:27:45;10.57;;;9.68;;
19087;SDS011;9676;50.916;13.352;2023-06-22T09:30:35;10.45;;;9.55;;
19087;SDS011;9676;50.916;13.352;2023-06-22T09:33:24;9.95;;;9.15;;
19087;SDS011;9676;50.916;13.352;2023-06-22T09:36:14;10.65;;;9.65;;
19087;SDS011;9676;50.916;13.352;2023-06-22T09:39:04;10.80;;;9.80;;
19087;SDS011;9676;50.916;13.352;2023-06-22T09:41:54;11.20;;;9.40;;
19087;SDS011;9676;50.916;13.352;2023-06-22T09:44:44;10.50;;;9.50;;
19087;SDS011;9676;50.916;13.352;2023-06-22T09:47:34;11.00;;;9.90;;
19087;SDS011;9676;50.916;13.352;2023-06-22T09:50:23;10.60;;;9.63;;
19087;SDS011;9676;50.916;13.352;2023-06-22T09:53:13;10.40;;;9.50;;
19087;SDS011;9676;50.916;13.352;2023-06-22T09:56:03;10.95;;;9.35;;
19087;SDS011;9676;50.916;13.352;2023-06-22T09:58:53;10.55;;;9.38;;
19087;SDS011;9676;50.916;13.352;2023-06-22T10:02:01;10.88;;;9.90;;
19087;SDS011;9676;50.916;13.352;2023-06-22T10:04:51;10.48;;;9.57;;
19087;SDS011;9676;50.916;13.352;2023-06-22T10:07:40;10.85;;;9.85;;
19087;SDS011;9676;50.916;13.352;2023-06-22T10:10:32;11.35;;;10.35;;
19087;SDS011;9676;50.916;13.352;2023-06-22T10:13:21;10.45;;;9.45;;
19087;SDS011;9676;50.916;13.352;2023-06-22T10:16:10;11.23;;;10.00;;
19087;SDS011;9676;50.916;13.352;2023-06-22T10:19:01;11.27;;;10.20;;
19087;SDS011;9676;50.916;13.352;2023-06-22T10:21:50;10.75;;;9.65;;
19087;SDS011;9676;50.916;13.352;2023-06-22T10:24:40;11.07;;;10.07;;
19087;SDS011;9676;50.916;13.352;2023-06-22T10:27:32;11.30;;;10.30;;
19087;SDS011;9676;50.916;13.352;2023-06-22T10:30:21;10.50;;;9.50;;
19087;SDS011;9676;50.916;13.352;2023-06-22T10:33:11;10.32;;;9.50;;
19087;SDS011;9676;50.916;13.352;2023-06-22T10:36:03;10.23;;;9.30;;
19087;SDS011;9676;50.916;13.352;2023-06-22T10:38:53;12.50;;;9.48;;
19087;SDS011;9676;50.916;13.352;2023-06-22T10:41:43;10.23;;;9.43;;
19087;SDS011;9676;50.916;13.352;2023-06-22T10:44:32;11.00;;;9.90;;
19087;SDS011;9676;50.916;13.352;2023-06-22T10:47:22;10.93;;;9.82;;
19087;SDS011;9676;50.916;13.352;2023-06-22T10:50:11;10.60;;;9.70;;
19087;SDS011;9676;50.916;13.352;2023-06-22T10:53:03;10.57;;;9.55;;
19087;SDS011;9676;50.916;13.352;2023-06-22T10:55:53;10.38;;;9.38;;
19087;SDS011;9676;50.916;13.352;2023-06-22T10:58:44;11.07;;;10.07;;
19087;SDS011;9676;50.916;13.352;2023-06-22T11:01:34;11.30;;;10.10;;
19087;SDS011;9676;50.916;13.352;2023-06-22T11:04:24;11.90;;;10.52;;
19087;SDS011;9676;50.916;13.352;2023-06-22T11:07:14;18.52;;;10.88;;
19087;SDS011;9676;50.916;13.352;2023-06-22T11:10:06;11.73;;;10.55;;
19087;SDS011;9676;50.916;13.352;2023-06-22T11:12:56;11.65;;;10.50;;
19087;SDS011;9676;50.916;13.352;2023-06-22T11:15:46;11.50;;;10.43;;
19087;SDS011;9676;50.916;13.352;2023-06-22T11:18:35;11.68;;;10.57;;
19087;SDS011;9676;50.916;13.352;2023-06-22T11:21:25;12.50;;;11.30;;
19087;SDS011;9676;50.916;13.352;2023-06-22T11:24:14;11.90;;;10.70;;
19087;SDS011;9676;50.916;13.352;2023-06-22T11:27:06;12.07;;;10.97;;
19087;SDS011;9676;50.916;13.352;2023-06-22T11:29:55;12.27;;;11.07;;
19087;SDS011;9676;50.916;13.352;2023-06-22T11:32:45;12.03;;;10.83;;
19087;SDS011;9676;50.916;13.352;2023-06-22T11:35:34;11.93;;;10.83;;
19087;SDS011;9676;50.916;13.352;2023-06-22T11:38:24;12.27;;;11.07;;
19087;SDS011;9676;50.916;13.352;2023-06-22T11:41:13;12.43;;;11.20;;
19087;SDS011;9676;50.916;13.352;2023-06-22T11:44:04;12.70;;;11.40;;
19087;SDS011;9676;50.916;13.352;2023-06-22T11:46:54;12.47;;;11.37;;
19087;SDS011;9676;50.916;13.352;2023-06-22T11:49:43;12.43;;;11.23;;
19087;SDS011;9676;50.916;13.352;2023-06-22T11:52:33;12.77;;;11.50;;
19087;SDS011;9676;50.916;13.352;2023-06-22T11:55:23;12.30;;;11.10;;
19087;SDS011;9676;50.916;13.352;2023-06-22T11:58:13;12.30;;;11.20;;
19087;SDS011;9676;50.916;13.352;2023-06-22T12:01:04;12.17;;;11.07;;
19087;SDS011;9676;50.916;13.352;2023-06-22T12:03:53;12.70;;;11.40;;
19087;SDS011;9676;50.916;13.352;2023-06-22T12:06:42;12.83;;;11.57;;
19087;SDS011;9676;50.916;13.352;2023-06-22T12:09:32;13.13;;;11.83;;
19087;SDS011;9676;50.916;13.352;2023-06-22T12:12:21;12.90;;;11.60;;
19087;SDS011;9676;50.916;13.352;2023-06-22T12:15:11;15.60;;;11.30;;
19087;SDS011;9676;50.916;13.352;2023-06-22T12:18:01;12.63;;;11.40;;
19087;SDS011;9676;50.916;13.352;2023-06-22T12:20:51;12.50;;;11.20;;
19087;SDS011;9676;50.916;13.352;2023-06-22T12:23:40;12.73;;;11.53;;
19087;SDS011;9676;50.916;13.352;2023-06-22T12:26:30;13.87;;;11.50;;
19087;SDS011;9676;50.916;13.352;2023-06-22T12:29:19;13.33;;;11.90;;
19087;SDS011;9676;50.916;13.352;2023-06-22T12:32:08;12.70;;;11.50;;
19087;SDS011;9676;50.916;13.352;2023-06-22T12:35:01;12.13;;;10.93;;
19087;SDS011;9676;50.916;13.352;2023-06-22T12:37:51;12.57;;;11.23;;
19087;SDS011;9676;50.916;13.352;2023-06-22T12:40:41;12.57;;;11.37;;
19087;SDS011;9676;50.916;13.352;2023-06-22T12:43:30;13.00;;;11.67;;
19087;SDS011;9676;50.916;13.352;2023-06-22T12:46:20;12.47;;;11.33;;
19087;SDS011;9676;50.916;13.352;2023-06-22T12:49:09;13.40;;;12.10;;
19087;SDS011;9676;50.916;13.352;2023-06-22T12:52:00;12.53;;;11.33;;
19087;SDS011;9676;50.916;13.352;2023-06-22T12:54:49;12.50;;;11.20;;
19087;SDS011;9676;50.916;13.352;2023-06-22T12:57:42;14.60;;;11.10;;
19087;SDS011;9676;50.916;13.352;2023-06-22T13:00:31;12.30;;;11.10;;
19087;SDS011;9676;50.916;13.352;2023-06-22T13:03:21;12.63;;;11.43;;
19087;SDS011;9676;50.916;13.352;2023-06-22T13:06:12;12.20;;;11.10;;
19087;SDS011;9676;50.916;13.352;2023-06-22T13:09:03;12.53;;;11.33;;
19087;SDS011;9676;50.916;13.352;2023-06-22T13:12:08;12.50;;;11.10;;
19087;SDS011;9676;50.916;13.352;2023-06-22T13:14:57;12.77;;;11.47;;
19087;SDS011;9676;50.916;13.352;2023-06-22T13:17:47;12.97;;;11.77;;
19087;SDS011;9676;50.916;13.352;2023-06-22T13:20:36;12.27;;;11.07;;
19087;SDS011;9676;50.916;13.352;2023-06-22T13:23:25;13.50;;;11.27;;
19087;SDS011;9676;50.916;13.352;2023-06-22T13:26:16;13.23;;;11.83;;
19087;SDS011;9676;50.916;13.352;2023-06-22T13:29:05;13.37;;;11.27;;
19087;SDS011;9676;50.916;13.352;2023-06-22T13:31:55;12.17;;;10.90;;
19087;SDS011;9676;50.916;13.352;2023-06-22T13:34:45;12.33;;;11.13;;
19087;SDS011;9676;50.916;13.352;2023-06-22T13:37:34;12.50;;;11.30;;
19087;SDS011;9676;50.916;13.352;2023-06-22T13:40:24;12.27;;;11.17;;
19087;SDS011;9676;50.916;13.352;2023-06-22T13:43:19;12.53;;;11.23;;
19087;SDS011;9676;50.916;13.352;2023-06-22T13:46:15;12.17;;;11.00;;
19087;SDS011;9676;50.916;13.352;2023-06-22T13:49:05;12.43;;;11.23;;
19087;SDS011;9676;50.916;13.352;2023-06-22T13:51:54;12.67;;;11.40;;
19087;SDS011;9676;50.916;13.352;2023-06-22T13:54:44;12.80;;;11.40;;
19087;SDS011;9676;50.916;13.352;2023-06-22T13:57:33;12.70;;;11.50;;
19087;SDS011;9676;50.916;13.352;2023-06-22T14:00:24;12.90;;;11.60;;
19087;SDS011;9676;50.916;13.352;2023-06-22T14:03:15;13.03;;;11.67;;
19087;SDS011;9676;50.916;13.352;2023-06-22T14:06:05;13.37;;;11.57;;
19087;SDS011;9676;50.916;13.352;2023-06-22T14:08:56;13.30;;;11.80;;
19087;SDS011;9676;50.916;13.352;2023-06-22T14:11:46;12.33;;;11.13;;
19087;SDS011;9676;50.916;13.352;2023-06-22T14:14:35;13.03;;;11.37;;
19087;SDS011;9676;50.916;13.352;2023-06-22T14:17:26;12.00;;;10.80;;
19087;SDS011;9676;50.916;13.352;2023-06-22T14:20:16;12.60;;;11.40;;
19087;SDS011;9676;50.916;13.352;2023-06-22T14:23:05;13.57;;;11.80;;
19087;SDS011;9676;50.916;13.352;2023-06-22T14:25:54;12.43;;;11.23;;
19087;SDS011;9676;50.916;13.352;2023-06-22T14:28:44;12.23;;;11.13;;
19087;SDS011;9676;50.916;13.352;2023-06-22T14:31:36;12.60;;;11.40;;
19087;SDS011;9676;50.916;13.352;2023-06-22T14:34:27;13.40;;;12.00;;
19087;SDS011;9676;50.916;13.352;2023-06-22T14:37:16;12.17;;;11.03;;
19087;SDS011;9676;50.916;13.352;2023-06-22T14:40:06;12.60;;;11.40;;
19087;SDS011;9676;50.916;13.352;2023-06-22T14:42:56;12.30;;;11.17;;
19087;SDS011;9676;50.916;13.352;2023-06-22T14:45:46;17.70;;;11.50;;
19087;SDS011;9676;50.916;13.352;2023-06-22T14:48:37;13.17;;;11.93;;
19087;SDS011;9676;50.916;13.352;2023-06-22T14:51:28;14.03;;;11.63;;
19087;SDS011;9676;50.916;13.352;2023-06-22T14:54:18;12.90;;;11.60;;
19087;SDS011;9676;50.916;13.352;2023-06-22T14:57:07;13.13;;;11.83;;
19087;SDS011;9676;50.916;13.352;2023-06-22T14:59:56;12.53;;;11.27;;
19087;SDS011;9676;50.916;13.352;2023-06-22T15:02:46;19.00;;;11.70;;
19087;SDS011;9676;50.916;13.352;2023-06-22T15:05:36;14.07;;;11.87;;
19087;SDS011;9676;50.916;13.352;2023-06-22T15:08:27;13.40;;;11.50;;
19087;SDS011;9676;50.916;13.352;2023-06-22T15:11:16;13.13;;;11.83;;
19087;SDS011;9676;50.916;13.352;2023-06-22T15:14:06;13.00;;;11.60;;
19087;SDS011;9676;50.916;13.352;2023-06-22T15:16:58;13.13;;;11.80;;
19087;SDS011;9676;50.916;13.352;2023-06-22T15:19:47;12.33;;;11.17;;
19087;SDS011;9676;50.916;13.352;2023-06-22T15:22:36;13.13;;;11.93;;
19087;SDS011;9676;50.916;13.352;2023-06-22T15:25:27;12.33;;;11.13;;
19087;SDS011;9676;50.916;13.352;2023-06-22T15:28:17;13.00;;;11.70;;
19087;SDS011;9676;50.916;13.352;2023-06-22T15:31:06;11.97;;;10.77;;
19087;SDS011;9676;50.916;13.352;2023-06-22T15:33:56;13.27;;;11.87;;
19087;SDS011;9676;50.916;13.352;2023-06-22T15:36:45;13.00;;;11.70;;
19087;SDS011;9676;50.916;13.352;2023-06-22T15:39:37;12.57;;;11.23;;
19087;SDS011;9676;50.916;13.352;2023-06-22T15:42:28;12.63;;;11.43;;
19087;SDS011;9676;50.916;13.352;2023-06-22T15:45:17;12.80;;;11.53;;
19087;SDS011;9676;50.916;13.352;2023-06-22T15:48:06;12.83;;;11.53;;
19087;SDS011;9676;50.916;13.352;2023-06-22T15:50:56;12.60;;;11.40;;
19087;SDS011;9676;50.916;13.352;2023-06-22T15:53:46;12.77;;;11.47;;
19087;SDS011;9676;50.916;13.352;2023-06-22T15:56:35;12.80;;;11.50;;
19087;SDS011;9676;50.916;13.352;2023-06-22T15:59:26;13.03;;;11.70;;
19087;SDS011;9676;50.916;13.352;2023-06-22T16:02:15;13.13;;;11.83;;
19087;SDS011;9676;50.916;13.352;2023-06-22T16:05:05;13.17;;;11.83;;
19087;SDS011;9676;50.916;13.352;2023-06-22T16:07:56;13.10;;;11.80;;
19087;SDS011;9676;50.916;13.352;2023-06-22T16:10:46;12.30;;;11.10;;
19087;SDS011;9676;50.916;13.352;2023-06-22T16:13:35;12.53;;;11.33;;
19087;SDS011;9676;50.916;13.352;2023-06-22T16:16:27;12.73;;;11.43;;
19087;SDS011;9676;50.916;13.352;2023-06-22T16:19:16;12.83;;;11.43;;
19087;SDS011;9676;50.916;13.352;2023-06-22T16:22:06;13.07;;;11.70;;
19087;SDS011;9676;50.916;13.352;2023-06-22T16:24:55;12.60;;;11.40;;
19087;SDS011;9676;50.916;13.352;2023-06-22T16:27:45;14.17;;;12.03;;
19087;SDS011;9676;50.916;13.352;2023-06-22T16:30:35;12.80;;;11.47;;
19087;SDS011;9676;50.916;13.352;2023-06-22T16:33:27;12.80;;;11.50;;
19087;SDS011;9676;50.916;13.352;2023-06-22T16:36:16;14.00;;;12.50;;
19087;SDS011;9676;50.916;13.352;2023-06-22T16:39:06;13.43;;;12.13;;
19087;SDS011;9676;50.916;13.352;2023-06-22T16:41:55;13.50;;;12.10;;